createdAt,value
2022-09-12T00:04:40.800Z,101750.44
2022-09-12T00:09:42.292Z,101747.97
2022-09-12T00:14:43.705Z,101747.88
2022-09-12T00:19:45.114Z,101746.34
2022-09-12T00:24:46.572Z,101754.38
2022-09-12T00:29:48.026Z,101758.03
2022-09-12T00:34:49.529Z,101748.44
2022-09-12T00:39:51.070Z,101743.41
2022-09-12T00:44:53.211Z,101745.28
2022-09-12T00:50:13.688Z,101742.81
2022-09-12T00:55:51.468Z,101734.13
2022-09-12T01:00:53.148Z,101727.34
2022-09-12T01:06:00.939Z,101730.84
2022-09-12T01:11:02.460Z,101733.50
2022-09-12T01:16:05.938Z,101733.56
2022-09-12T01:21:40.218Z,101731.00
2022-09-12T01:27:06.418Z,101731.03
2022-09-12T01:32:35.617Z,101728.56
2022-09-12T01:37:54.608Z,101725.97
2022-09-12T01:43:08.546Z,101727.72
2022-09-12T01:48:20.387Z,101715.59
2022-09-12T01:53:34.667Z,101700.00
2022-09-12T01:58:50.779Z,101701.78
2022-09-12T02:04:10.330Z,101689.69
2022-09-12T02:09:29.792Z,101688.09
2022-09-12T02:14:37.430Z,101687.22
2022-09-12T02:20:05.795Z,101678.63
2022-09-12T02:25:11.470Z,101673.47
2022-09-12T02:30:16.444Z,101684.81
2022-09-12T02:35:23.370Z,101689.13
2022-09-12T02:40:25.551Z,101689.03
2022-09-12T02:45:27.555Z,101689.81
2022-09-12T02:50:29.832Z,101687.13
2022-09-12T02:55:33.318Z,101694.84
2022-09-12T03:00:41.783Z,101681.78
2022-09-12T03:05:59.360Z,101682.56
2022-09-12T03:11:38.330Z,101688.81
2022-09-12T03:17:00.083Z,101696.78
2022-09-12T03:22:12.400Z,101680.38
2022-09-12T03:27:32.563Z,101682.97
2022-09-12T03:33:00.094Z,101677.75
2022-09-12T03:38:01.545Z,101668.22
2022-09-12T03:43:07.954Z,101676.91
2022-09-12T03:48:09.412Z,101674.38
2022-09-12T03:53:14.092Z,101668.25
2022-09-12T03:58:18.400Z,101663.03
2022-09-12T04:03:19.981Z,101660.47
2022-09-12T04:08:21.420Z,101657.88
2022-09-12T04:13:22.872Z,101651.88
2022-09-12T04:18:24.324Z,101647.63
2022-09-12T04:23:25.716Z,101657.28
2022-09-12T04:28:29.035Z,101654.84
2022-09-12T04:33:30.603Z,101661.03
2022-09-12T04:38:32.785Z,101667.94
2022-09-12T04:43:34.673Z,101662.72
2022-09-12T04:48:36.745Z,101661.91
2022-09-12T04:53:38.508Z,101667.94
2022-09-12T04:58:39.982Z,101673.16
2022-09-12T05:03:45.322Z,101671.41
2022-09-12T05:08:47.465Z,101660.13
2022-09-12T05:13:49.559Z,101653.13
2022-09-12T05:18:51.710Z,101646.97
2022-09-12T05:23:55.041Z,101645.97
2022-09-12T05:28:56.512Z,101642.44
2022-09-12T05:33:58.076Z,101638.84
2022-09-12T05:39:00.573Z,101635.09
2022-09-12T05:44:05.361Z,101643.56
2022-09-12T05:49:09.752Z,101648.56
2022-09-12T05:54:14.100Z,101642.28
2022-09-12T05:59:20.712Z,101654.97
2022-09-12T06:04:23.676Z,101652.09
2022-09-12T06:09:25.643Z,101645.75
2022-09-12T06:14:27.036Z,101660.22
2022-09-12T06:19:28.659Z,101656.91
2022-09-12T06:24:30.059Z,101641.00
2022-09-12T06:29:32.590Z,101642.38
2022-09-12T06:34:33.992Z,101627.25
2022-09-12T06:39:36.555Z,101638.81
2022-09-12T06:44:37.979Z,101639.94
2022-09-12T06:49:39.430Z,101638.75
2022-09-12T06:54:40.828Z,101641.75
2022-09-12T06:59:42.394Z,101639.56
2022-09-12T07:04:43.796Z,101634.75
2022-09-12T07:09:45.189Z,101638.53
2022-09-12T07:14:46.692Z,101650.81
2022-09-12T07:19:48.173Z,101640.66
2022-09-12T07:24:50.391Z,101639.28
2022-09-12T07:29:52.132Z,101645.59
2022-09-12T07:34:53.736Z,101637.53
2022-09-12T07:39:55.738Z,101626.75
2022-09-12T07:44:57.168Z,101621.28
2022-09-12T07:49:59.057Z,101629.78
2022-09-12T07:55:00.635Z,101629.91
2022-09-12T08:00:03.525Z,101626.09
2022-09-12T08:05:05.446Z,101622.84
2022-09-12T08:10:08.840Z,101625.78
2022-09-12T08:15:11.589Z,101623.59
2022-09-12T08:20:13.186Z,101616.22
2022-09-12T08:25:14.894Z,101622.81
2022-09-12T08:30:16.322Z,101621.34
2022-09-12T08:35:17.816Z,101621.03
2022-09-12T08:40:19.434Z,101619.66
2022-09-12T08:45:36.902Z,101614.56
2022-09-12T08:50:49.237Z,101619.25
2022-09-12T08:55:59.235Z,101609.22
2022-09-12T09:01:19.757Z,101615.06
2022-09-12T09:06:34.733Z,101615.03
2022-09-12T09:12:03.532Z,101612.88
2022-09-12T09:17:13.057Z,101608.41
2022-09-12T09:22:22.694Z,101610.31
2022-09-12T09:27:41.903Z,101602.16
2022-09-12T09:32:47.741Z,101605.94
2022-09-12T09:38:05.912Z,101593.16
2022-09-12T09:43:22.822Z,101598.72
2022-09-12T09:48:36.194Z,101597.91
2022-09-12T09:53:56.573Z,101588.09
2022-09-12T09:59:18.937Z,101591.44
2022-09-12T10:04:23.482Z,101589.63
2022-09-12T10:09:27.947Z,101588.19
2022-09-12T10:14:41.240Z,101576.09
2022-09-12T10:19:42.888Z,101579.97
2022-09-12T10:24:50.284Z,101580.25
2022-09-12T10:30:00.515Z,101577.50
2022-09-12T10:35:07.344Z,101581.63
2022-09-12T10:40:23.837Z,101579.94
2022-09-12T10:45:37.525Z,101573.97
2022-09-12T10:50:41.726Z,101561.78
2022-09-12T10:56:09.380Z,101562.97
2022-09-12T11:01:29.533Z,101559.44
2022-09-12T11:06:49.777Z,101546.19
2022-09-12T11:12:07.688Z,101549.63
2022-09-12T11:17:25.695Z,101550.59
2022-09-12T11:22:35.921Z,101543.63
2022-09-12T11:27:54.536Z,101548.28
2022-09-12T11:33:24.581Z,101537.56
2022-09-12T11:38:47.497Z,101528.06
2022-09-12T11:44:35.275Z,101525.78
2022-09-12T11:49:49.888Z,101508.78
2022-09-12T11:55:00.342Z,101513.63
2022-09-12T12:00:19.859Z,101507.13
2022-09-12T12:05:29.805Z,101503.94
2022-09-12T12:10:43.415Z,101506.06
2022-09-12T12:16:07.478Z,101500.59
2022-09-12T12:21:28.363Z,101491.13
2022-09-12T12:26:38.781Z,101504.47
2022-09-12T12:31:59.028Z,101499.78
2022-09-12T12:37:29.820Z,101496.50
2022-09-12T12:42:34.325Z,101498.41
2022-09-12T12:47:35.791Z,101492.94
2022-09-12T12:52:58.882Z,101481.41
2022-09-12T12:58:02.218Z,101478.38
2022-09-12T13:03:06.594Z,101467.38
2022-09-12T13:08:24.622Z,101467.63
2022-09-12T13:13:44.076Z,101447.47
2022-09-12T13:18:49.148Z,101448.50
2022-09-12T13:24:03.072Z,101437.28
2022-09-12T13:29:12.009Z,101427.50
2022-09-12T13:34:20.576Z,101418.09
2022-09-12T13:39:28.385Z,101409.41
2022-09-12T13:44:32.827Z,101394.06
2022-09-12T13:49:37.516Z,101393.19
2022-09-12T13:54:38.963Z,101394.41
2022-09-12T13:59:42.501Z,101394.94
2022-09-12T14:05:06.929Z,101396.00
2022-09-12T14:10:08.650Z,101388.53
2022-09-12T14:15:25.927Z,101389.94
2022-09-12T14:20:36.146Z,101388.13
2022-09-12T14:25:41.283Z,101376.22
2022-09-12T14:31:21.012Z,101363.63
2022-09-12T14:36:30.725Z,101357.44
2022-09-12T14:41:37.212Z,101356.59
2022-09-12T14:46:41.043Z,101355.50
2022-09-12T14:51:56.255Z,101357.09
2022-09-12T14:56:58.933Z,101347.28
2022-09-12T15:02:21.801Z,101348.84
2022-09-12T15:07:31.037Z,101330.03
2022-09-12T15:12:32.576Z,101330.56
2022-09-12T15:17:33.982Z,101321.06
2022-09-12T15:22:37.507Z,101313.56
2022-09-12T15:27:42.310Z,101305.19
2022-09-12T15:32:44.464Z,101299.94
2022-09-12T15:37:45.887Z,101294.28
2022-09-12T15:42:47.317Z,101289.94
2022-09-12T15:47:48.765Z,101294.59
2022-09-12T15:52:50.577Z,101278.66
2022-09-12T15:57:52.180Z,101279.16
2022-09-12T16:02:54.003Z,101273.38
2022-09-12T16:07:55.585Z,101263.00
2022-09-12T16:12:58.142Z,101262.16
2022-09-12T16:17:59.532Z,101257.38
2022-09-12T16:23:01.060Z,101252.78
2022-09-12T16:28:03.428Z,101250.28
2022-09-12T16:33:05.325Z,101240.50
2022-09-12T16:38:07.212Z,101239.47
2022-09-12T16:43:08.740Z,101229.50
2022-09-12T16:48:10.186Z,101215.25
2022-09-12T16:53:11.623Z,101209.75
2022-09-12T16:58:13.085Z,101209.38
2022-09-12T17:03:16.810Z,101210.25
2022-09-12T17:08:18.299Z,101205.41
2022-09-12T17:13:19.779Z,101206.94
2022-09-12T17:18:21.675Z,101189.72
2022-09-12T17:23:24.721Z,101179.00
2022-09-12T17:28:27.285Z,101172.34
2022-09-12T17:33:29.927Z,101168.41
2022-09-12T17:38:34.053Z,101170.44
2022-09-12T17:43:37.882Z,101159.47
2022-09-12T17:48:39.323Z,101151.00
2022-09-12T17:53:42.188Z,101142.41
2022-09-12T17:58:43.832Z,101142.00
2022-09-12T18:03:46.396Z,101127.63
2022-09-12T18:08:47.846Z,101124.22
2022-09-12T18:13:49.426Z,101113.63
2022-09-12T18:18:51.176Z,101115.03
2022-09-12T18:23:52.636Z,101121.25
2022-09-12T18:28:54.571Z,101120.97
2022-09-12T18:33:57.633Z,101113.59
2022-09-12T18:38:59.672Z,101098.66
2022-09-12T18:44:02.017Z,101093.34
2022-09-12T18:49:03.573Z,101095.03
2022-09-12T18:54:08.669Z,101083.44
2022-09-12T18:59:12.714Z,101074.03
2022-09-12T19:04:14.139Z,101089.47
2022-09-12T19:09:18.286Z,101081.41
2022-09-12T19:14:26.100Z,101069.00
2022-09-12T19:19:27.899Z,101055.78
2022-09-12T19:24:29.349Z,101063.84
2022-09-12T19:29:31.264Z,101056.06
2022-09-12T19:34:32.673Z,101056.41
2022-09-12T19:39:34.413Z,101049.81
2022-09-12T19:44:35.995Z,101048.41
2022-09-12T19:49:37.393Z,101048.06
2022-09-12T19:54:38.938Z,101040.34
2022-09-12T19:59:40.371Z,101034.00
2022-09-12T20:04:42.042Z,101018.78
2022-09-12T20:09:43.543Z,101009.59
2022-09-12T20:14:45.154Z,101010.00
2022-09-12T20:19:46.756Z,100997.84
2022-09-12T20:24:48.913Z,100984.22
2022-09-12T20:29:51.104Z,100975.91
2022-09-12T20:34:53.016Z,100973.63
2022-09-12T20:39:54.626Z,100957.66
2022-09-12T20:44:56.111Z,100961.09
2022-09-12T20:49:57.545Z,100951.44
2022-09-12T20:54:59.080Z,100946.66
2022-09-12T21:00:00.556Z,100939.16
2022-09-12T21:05:02.124Z,100938.78
2022-09-12T21:10:03.943Z,100927.63
2022-09-12T21:15:06.111Z,100923.06
2022-09-12T21:20:11.387Z,100912.41
2022-09-12T21:25:13.280Z,100904.94
2022-09-12T21:30:14.929Z,100902.00
2022-09-12T21:35:16.539Z,100892.00
2022-09-12T21:40:18.077Z,100891.50
2022-09-12T21:45:20.191Z,100885.47
2022-09-12T21:50:21.694Z,100883.88
2022-09-12T21:55:27.203Z,100870.72
2022-09-12T22:00:28.664Z,100865.25
2022-09-12T22:05:32.618Z,100864.88
2022-09-12T22:10:34.299Z,100849.28
2022-09-12T22:15:40.552Z,100856.44
2022-09-12T22:20:42.439Z,100843.22
2022-09-12T22:25:43.967Z,100842.44
2022-09-12T22:30:50.616Z,100833.88
2022-09-12T22:35:52.160Z,100826.31
2022-09-12T22:40:53.935Z,100829.97
2022-09-12T22:45:55.449Z,100819.97
2022-09-12T22:50:57.105Z,100809.38
2022-09-12T22:55:58.613Z,100824.22
2022-09-12T23:01:00.100Z,100818.53
2022-09-12T23:06:02.195Z,100820.03
2022-09-12T23:11:09.781Z,100812.97
2022-09-12T23:16:19.747Z,100807.19
2022-09-12T23:21:21.968Z,100824.75
2022-09-12T23:26:28.101Z,100825.84
2022-09-12T23:31:31.526Z,100821.84
2022-09-12T23:36:33.553Z,100826.94
2022-09-12T23:41:35.110Z,100838.53
2022-09-12T23:46:36.559Z,100824.22
2022-09-12T23:51:37.965Z,100771.34
2022-09-12T23:56:39.548Z,100749.78
